Airfield :
LOGIN :

Register | Disclaimer

   EN    FR    IT 

 










Legend :    VFR   Marginal VFR   IFR   Intensive IFR   Very Intensive IFR
Visi :
Ceiling :
>= 8 km
>= 3000ft
5 to 8 km
1000 to 3000 ft
1500m to 5 km
500 to 1000 ft
800 to 1500m
200 to 500 ft
< 800m
< 200 ft
Symbols :   Thunderstorms  Fog  Heavy snow  Heavy precipitations  Wind > 20 kt
SIGMETs :     Misc.  Thunderstorms  Icing  Turbulence  Mountain Waves  Volcanic Ashes







- Airport Elevation : 20 ft
- IATA code : DLM


LTBS - Dalaman

CURRENT METAR :
  • 262350Z VRB01KT CAVOK 24/22 Q1007 NOSIG

EXPIRED METARs :
  • 262320Z 23002KT CAVOK 24/22 Q1007 NOSIG RMK RWY19 19002KT
  • 262250Z VRB01KT CAVOK 24/22 Q1008 NOSIG
  • 262220Z VRB02KT CAVOK 25/23 Q1008 NOSIG RMK RWY19 VRB01KT
  • 262150Z 22003KT CAVOK 25/23 Q1008 NOSIG RMK RWY19 00000KT
  • 262120Z VRB01KT CAVOK 25/23 Q1008 NOSIG RMK RWY19 00000KT

TAF TAF LTBS
Valid from the 27 at 00:00 until the 28 at 00:00 UTC


262240Z 2700/2724 VRB02KT CAVOK
BECMG 2706/2708 21012KT FEW030
BECMG 2715/2717 VRB02KT CAVOK
No reported NOTAMs for that airfield.



MET'MAP, your aeronautical weather chart ! - Copyright ORBIFLY December 2007 - Disclaimer

ORBIFLY MET'MAP TEAM :

Programming & Development : Alexandra Zaïnal
Concept & Development : Baudouin d'Aumeries
Co-Development & Prog : Marc-Olivier Méhu
Technical & hardware support : Manuel Goepfert

Contact : metmap@orbifly.com




SOURCES & CREDITS :

   NOAA